sensor_id;sensor_type;location;lat;lon;timestamp;P1;durP1;ratioP1;P2;durP2;ratioP2
15297;SDS011;7750;48.796;9.026;2024-02-21T10:14:07;7.93;;;2.70;;
15297;SDS011;7750;48.796;9.026;2024-02-21T10:19:20;8.77;;;3.47;;
15297;SDS011;7750;48.796;9.026;2024-02-21T10:24:26;11.37;;;3.90;;
15297;SDS011;7750;48.796;9.026;2024-02-21T10:29:27;8.43;;;2.87;;
15297;SDS011;7750;48.796;9.026;2024-02-21T10:34:28;8.47;;;2.90;;
15297;SDS011;7750;48.796;9.026;2024-02-21T10:39:30;7.47;;;3.20;;
15297;SDS011;7750;48.796;9.026;2024-02-21T10:44:32;11.57;;;3.23;;
15297;SDS011;7750;48.796;9.026;2024-02-21T10:49:39;9.10;;;2.53;;
15297;SDS011;7750;48.796;9.026;2024-02-21T10:59:48;7.70;;;3.30;;
15297;SDS011;7750;48.796;9.026;2024-02-21T11:04:48;8.23;;;3.07;;
15297;SDS011;7750;48.796;9.026;2024-02-21T11:15:05;6.70;;;2.70;;
15297;SDS011;7750;48.796;9.026;2024-02-21T11:20:20;6.07;;;2.57;;
15297;SDS011;7750;48.796;9.026;2024-02-21T11:35:45;8.67;;;3.40;;
15297;SDS011;7750;48.796;9.026;2024-02-21T11:40:47;7.57;;;2.90;;
15297;SDS011;7750;48.796;9.026;2024-02-21T11:45:48;9.67;;;2.83;;
15297;SDS011;7750;48.796;9.026;2024-02-21T11:50:55;7.50;;;2.53;;
15297;SDS011;7750;48.796;9.026;2024-02-21T11:55:58;6.60;;;2.47;;
15297;SDS011;7750;48.796;9.026;2024-02-21T12:00:59;8.27;;;2.90;;
15297;SDS011;7750;48.796;9.026;2024-02-21T12:06:13;7.00;;;2.53;;
15297;SDS011;7750;48.796;9.026;2024-02-21T12:11:24;5.40;;;2.43;;
15297;SDS011;7750;48.796;9.026;2024-02-21T12:16:25;8.17;;;2.40;;
15297;SDS011;7750;48.796;9.026;2024-02-21T12:21:27;3.50;;;2.07;;
15297;SDS011;7750;48.796;9.026;2024-02-21T12:26:33;4.87;;;2.37;;
15297;SDS011;7750;48.796;9.026;2024-02-21T12:31:35;4.67;;;2.20;;
15297;SDS011;7750;48.796;9.026;2024-02-21T12:47:46;7.93;;;2.47;;
15297;SDS011;7750;48.796;9.026;2024-02-21T13:13:23;3.83;;;2.20;;
15297;SDS011;7750;48.796;9.026;2024-02-21T13:18:23;4.50;;;2.10;;
15297;SDS011;7750;48.796;9.026;2024-02-21T13:23:24;6.83;;;2.10;;
15297;SDS011;7750;48.796;9.026;2024-02-21T13:28:24;9.60;;;2.17;;
15297;SDS011;7750;48.796;9.026;2024-02-21T13:33:31;6.57;;;1.90;;
15297;SDS011;7750;48.796;9.026;2024-02-21T13:38:33;7.60;;;2.33;;
15297;SDS011;7750;48.796;9.026;2024-02-21T13:43:34;5.07;;;2.17;;
15297;SDS011;7750;48.796;9.026;2024-02-21T13:48:34;4.30;;;2.20;;
15297;SDS011;7750;48.796;9.026;2024-02-21T13:53:35;4.80;;;1.90;;
15297;SDS011;7750;48.796;9.026;2024-02-21T13:58:36;4.53;;;2.10;;
15297;SDS011;7750;48.796;9.026;2024-02-21T14:03:37;5.30;;;2.03;;
15297;SDS011;7750;48.796;9.026;2024-02-21T14:08:38;3.60;;;2.00;;
15297;SDS011;7750;48.796;9.026;2024-02-21T14:13:39;5.27;;;1.90;;
15297;SDS011;7750;48.796;9.026;2024-02-21T14:18:40;3.73;;;1.83;;
15297;SDS011;7750;48.796;9.026;2024-02-21T14:23:42;5.40;;;2.10;;
15297;SDS011;7750;48.796;9.026;2024-02-21T14:28:43;3.90;;;1.60;;
15297;SDS011;7750;48.796;9.026;2024-02-21T14:33:43;4.70;;;1.87;;
15297;SDS011;7750;48.796;9.026;2024-02-21T14:38:46;4.37;;;1.73;;
15297;SDS011;7750;48.796;9.026;2024-02-21T14:43:46;3.77;;;1.80;;
15297;SDS011;7750;48.796;9.026;2024-02-21T14:48:47;7.43;;;2.37;;
15297;SDS011;7750;48.796;9.026;2024-02-21T14:53:49;10.80;;;1.90;;
15297;SDS011;7750;48.796;9.026;2024-02-21T14:58:51;2.83;;;1.60;;
15297;SDS011;7750;48.796;9.026;2024-02-21T15:03:53;12.53;;;2.07;;
15297;SDS011;7750;48.796;9.026;2024-02-21T15:08:53;2.57;;;1.50;;
15297;SDS011;7750;48.796;9.026;2024-02-21T15:24:10;4.00;;;1.53;;
15297;SDS011;7750;48.796;9.026;2024-02-21T15:29:11;3.93;;;1.77;;
15297;SDS011;7750;48.796;9.026;2024-02-21T15:34:12;6.60;;;1.97;;
15297;SDS011;7750;48.796;9.026;2024-02-21T15:39:15;7.73;;;1.70;;
15297;SDS011;7750;48.796;9.026;2024-02-21T15:44:16;3.17;;;1.50;;
15297;SDS011;7750;48.796;9.026;2024-02-21T15:49:16;3.70;;;1.77;;
15297;SDS011;7750;48.796;9.026;2024-02-21T15:54:17;6.47;;;2.13;;
15297;SDS011;7750;48.796;9.026;2024-02-21T15:59:17;5.80;;;2.37;;
15297;SDS011;7750;48.796;9.026;2024-02-21T16:04:18;4.97;;;2.23;;
15297;SDS011;7750;48.796;9.026;2024-02-21T16:09:19;3.10;;;2.03;;
15297;SDS011;7750;48.796;9.026;2024-02-21T16:14:20;4.50;;;1.80;;
15297;SDS011;7750;48.796;9.026;2024-02-21T16:19:21;5.23;;;2.23;;
15297;SDS011;7750;48.796;9.026;2024-02-21T16:24:22;4.80;;;2.30;;
15297;SDS011;7750;48.796;9.026;2024-02-21T16:29:22;3.07;;;2.20;;
15297;SDS011;7750;48.796;9.026;2024-02-21T16:34:23;3.83;;;2.50;;
15297;SDS011;7750;48.796;9.026;2024-02-21T16:39:24;3.87;;;2.20;;
15297;SDS011;7750;48.796;9.026;2024-02-21T16:44:25;4.80;;;2.43;;
15297;SDS011;7750;48.796;9.026;2024-02-21T16:49:26;5.00;;;2.67;;
15297;SDS011;7750;48.796;9.026;2024-02-21T16:54:28;6.53;;;4.20;;
15297;SDS011;7750;48.796;9.026;2024-02-21T16:59:29;5.20;;;2.70;;
15297;SDS011;7750;48.796;9.026;2024-02-21T17:04:29;4.40;;;2.90;;
15297;SDS011;7750;48.796;9.026;2024-02-21T17:09:31;5.17;;;3.13;;
15297;SDS011;7750;48.796;9.026;2024-02-21T17:14:33;4.70;;;2.60;;
15297;SDS011;7750;48.796;9.026;2024-02-21T17:19:34;4.57;;;2.30;;
15297;SDS011;7750;48.796;9.026;2024-02-21T17:24:37;5.70;;;3.00;;
15297;SDS011;7750;48.796;9.026;2024-02-21T17:29:38;5.07;;;2.90;;
15297;SDS011;7750;48.796;9.026;2024-02-21T17:34:40;4.73;;;2.97;;
15297;SDS011;7750;48.796;9.026;2024-02-21T17:39:40;3.90;;;2.67;;
15297;SDS011;7750;48.796;9.026;2024-02-21T17:44:41;8.60;;;2.90;;
15297;SDS011;7750;48.796;9.026;2024-02-21T17:49:45;4.80;;;3.10;;
15297;SDS011;7750;48.796;9.026;2024-02-21T17:54:46;8.10;;;2.87;;
15297;SDS011;7750;48.796;9.026;2024-02-21T17:59:47;4.03;;;2.50;;
15297;SDS011;7750;48.796;9.026;2024-02-21T18:04:48;5.63;;;2.23;;
15297;SDS011;7750;48.796;9.026;2024-02-21T18:09:49;9.03;;;3.63;;
15297;SDS011;7750;48.796;9.026;2024-02-21T18:14:51;4.30;;;2.93;;
15297;SDS011;7750;48.796;9.026;2024-02-21T18:19:56;5.20;;;2.80;;
15297;SDS011;7750;48.796;9.026;2024-02-21T18:24:58;4.97;;;2.80;;
15297;SDS011;7750;48.796;9.026;2024-02-21T18:29:59;5.10;;;2.43;;
15297;SDS011;7750;48.796;9.026;2024-02-21T18:35:00;5.10;;;2.90;;
15297;SDS011;7750;48.796;9.026;2024-02-21T18:40:02;6.30;;;3.07;;
15297;SDS011;7750;48.796;9.026;2024-02-21T18:45:09;6.50;;;3.30;;
15297;SDS011;7750;48.796;9.026;2024-02-21T18:50:10;5.90;;;3.60;;
15297;SDS011;7750;48.796;9.026;2024-02-21T18:55:14;6.47;;;3.80;;
15297;SDS011;7750;48.796;9.026;2024-02-21T19:00:15;4.70;;;3.03;;
15297;SDS011;7750;48.796;9.026;2024-02-21T19:05:22;6.30;;;3.43;;
15297;SDS011;7750;48.796;9.026;2024-02-21T19:10:25;5.80;;;3.20;;
